Time,TemperatureF,DewpointF,PressureIn,WindDirection,WindDirectionDegrees,WindSpeedMPH,WindSpeedGustMPH,Humidity,HourlyPrecipIn,Conditions,Clouds,dailyrainin,SoftwareType,DateUTC
2015-07-04 00:03:00,60.0,56.0,-100.00,SW,225,4.0,4.0,88,-99.99,,,-99.99,,2015-07-04 05:03:00,
2015-07-04 00:13:00,60.0,56.0,-100.00,SW,220,4.0,4.0,88,-99.99,,,-99.99,,2015-07-04 05:13:00,
2015-07-04 00:23:00,59.0,56.0,-100.00,SW,225,5.0,6.0,88,-99.99,,,-99.99,,2015-07-04 05:23:00,
2015-07-04 00:33:00,59.0,56.0,-100.00,SW,230,4.0,6.0,88,-99.99,,,-99.99,,2015-07-04 05:33:00,
2015-07-04 00:44:00,59.0,56.0,-100.00,SW,230,4.0,4.0,89,-99.99,,,-99.99,,2015-07-04 05:44:00,
2015-07-04 00:53:00,58.0,55.0,-100.00,SW,225,6.0,6.0,90,-99.99,,,-99.99,,2015-07-04 05:53:00,
2015-07-04 01:03:00,58.0,55.0,-100.00,SW,230,4.0,5.0,90,-99.99,,,-99.99,,2015-07-04 06:03:00,
2015-07-04 01:23:00,58.0,55.0,-100.00,SW,220,4.0,5.0,90,-99.99,,,-99.99,,2015-07-04 06:23:00,
2015-07-04 01:33:00,58.0,55.0,-100.00,SW,220,4.0,4.0,90,-99.99,,,-99.99,,2015-07-04 06:33:00,
2015-07-04 01:43:00,57.0,54.0,-100.00,SW,225,3.0,4.0,90,-99.99,,,-99.99,,2015-07-04 06:43:00,
2015-07-04 02:03:00,57.0,54.0,-100.00,SW,225,1.0,4.0,91,-99.99,,,-99.99,,2015-07-04 07:03:00,
2015-07-04 02:12:00,56.0,54.0,-100.00,SW,230,1.0,2.0,91,-99.99,,,-99.99,,2015-07-04 07:12:00,
2015-07-04 02:23:00,56.0,54.0,-100.00,SSW,210,2.0,4.0,91,-99.99,,,-99.99,,2015-07-04 07:23:00,
2015-07-04 02:33:00,57.0,54.0,-100.00,SW,225,2.0,4.0,91,-99.99,,,-99.99,,2015-07-04 07:33:00,
2015-07-04 02:43:00,56.0,54.0,-100.00,WNW,285,1.0,3.0,91,-99.99,,,-99.99,,2015-07-04 07:43:00,
2015-07-04 03:03:00,56.0,54.0,-100.00,SSW,210,0.0,2.0,92,-99.99,,,-99.99,,2015-07-04 08:03:00,
2015-07-04 03:12:00,56.0,54.0,-100.00,SSW,210,0.0,0.0,92,-99.99,,,-99.99,,2015-07-04 08:12:00,
2015-07-04 03:23:00,56.0,54.0,-100.00,ENE,65,0.0,1.0,92,-99.99,,,-99.99,,2015-07-04 08:23:00,
2015-07-04 03:33:00,57.0,54.0,-100.00,SW,225,1.0,1.0,92,-99.99,,,-99.99,,2015-07-04 08:33:00,
2015-07-04 03:43:00,57.0,55.0,-100.00,South,175,1.0,2.0,92,-99.99,,,-99.99,,2015-07-04 08:43:00,
2015-07-04 03:53:00,57.0,55.0,-100.00,SE,125,1.0,2.0,92,-99.99,,,-99.99,,2015-07-04 08:53:00,
2015-07-04 04:03:00,57.0,54.0,-100.00,South,170,1.0,2.0,92,-99.99,,,-99.99,,2015-07-04 09:03:00,
2015-07-04 04:12:00,56.0,54.0,-100.00,SW,230,1.0,1.0,92,-99.99,,,-99.99,,2015-07-04 09:12:00,
2015-07-04 04:23:00,56.0,53.0,-100.00,West,265,1.0,4.0,92,-99.99,,,-99.99,,2015-07-04 09:23:00,
2015-07-04 04:33:00,55.0,53.0,-100.00,NNW,340,0.0,0.0,92,-99.99,,,-99.99,,2015-07-04 09:33:00,
2015-07-04 04:43:00,55.0,53.0,-100.00,NNE,15,1.0,1.0,92,-99.99,,,-99.99,,2015-07-04 09:43:00,
2015-07-04 04:53:00,55.0,53.0,-100.00,ESE,110,0.0,1.0,92,-99.99,,,-99.99,,2015-07-04 09:53:00,
2015-07-04 05:04:00,55.0,53.0,-100.00,ESE,110,0.0,2.0,92,-99.99,,,-99.99,,2015-07-04 10:04:00,
2015-07-04 05:13:00,56.0,53.0,-100.00,SW,225,0.0,1.0,92,-99.99,,,-99.99,,2015-07-04 10:13:00,
2015-07-04 05:23:00,55.0,53.0,-100.00,West,270,0.0,0.0,92,-99.99,,,-99.99,,2015-07-04 10:23:00,
2015-07-04 05:33:00,55.0,53.0,-100.00,NNW,340,0.0,0.0,92,-99.99,,,-99.99,,2015-07-04 10:33:00,
2015-07-04 05:43:00,55.0,53.0,-100.00,WSW,250,1.0,1.0,92,-99.99,,,-99.99,,2015-07-04 10:43:00,
2015-07-04 05:53:00,54.0,53.0,-100.00,WSW,250,1.0,1.0,92,-99.99,,,-99.99,,2015-07-04 10:53:00,
2015-07-04 06:03:00,55.0,53.0,-100.00,WSW,250,1.0,2.0,92,-99.99,,,-99.99,,2015-07-04 11:03:00,
2015-07-04 06:13:00,55.0,53.0,-100.00,WSW,245,3.0,3.0,92,-99.99,,,-99.99,,2015-07-04 11:13:00,
2015-07-04 06:23:00,56.0,54.0,-100.00,SW,230,1.0,2.0,92,-99.99,,,-99.99,,2015-07-04 11:23:00,
2015-07-04 06:33:00,55.0,53.0,-100.00,SW,230,0.0,2.0,92,-99.99,,,-99.99,,2015-07-04 11:33:00,
2015-07-04 06:43:00,56.0,53.0,-100.00,West,275,0.0,0.0,92,-99.99,,,-99.99,,2015-07-04 11:43:00,
2015-07-04 06:53:00,56.0,54.0,-100.00,West,280,0.0,0.0,92,-99.99,,,-99.99,,2015-07-04 11:53:00,
2015-07-04 07:03:00,57.0,54.0,-100.00,WSW,240,4.0,4.0,91,-99.99,,,-99.99,,2015-07-04 12:03:00,
2015-07-04 07:13:00,58.0,55.0,-100.00,SW,235,2.0,4.0,90,-99.99,,,-99.99,,2015-07-04 12:13:00,
2015-07-04 07:23:00,58.0,55.0,-100.00,SSW,200,1.0,2.0,89,-99.99,,,-99.99,,2015-07-04 12:23:00,
2015-07-04 07:33:00,59.0,56.0,-100.00,South,175,1.0,2.0,88,-99.99,,,-99.99,,2015-07-04 12:33:00,
2015-07-04 07:44:00,60.0,56.0,-100.00,SSW,210,0.0,2.0,88,-99.99,,,-99.99,,2015-07-04 12:44:00,
2015-07-04 08:03:00,63.0,59.0,-100.00,ESE,110,0.0,2.0,86,-99.99,,,-99.99,,2015-07-04 13:03:00,
2015-07-04 08:13:00,64.0,59.0,-100.00,SW,215,2.0,2.0,82,-99.99,,,-99.99,,2015-07-04 13:13:00,